Terminal Aerodrome Forecast
Issued by NWS Blacksburg, VA

Current Version | Previous Version | Graphics & Text | Print | Product List | Glossary On
Versions: 1 2 3 4 5 6 7 8 9 10 11 12 13 14 15 16 17 18 19 20 21 22 23 24 25 26 27 28 29 30 31 32 33 34
000
FTUS41 KRNK 232340
TAFBLF
TAF
KBLF 232340Z 2400/2424 21004KT P6SM BKN100
     FM240800 22005KT P6SM -RA SCT025 OVC060
     FM241500 27006KT P6SM BKN025 OVC100
     FM242100 25005KT 6SM -RA SCT009 OVC025=

USA.gov is the U.S. government's official web portal to all federal, state and local government web resources and services.